Time;durP1;ratioP1;P1;durP2;ratioP2;P2;SDS_P1;SDS_P2;PMS_P1;PMS_P2;Temp;Humidity;BMP_temperature;BMP_pressure;BME280_temperature;BME280_humidity;BME280_pressure;Samples;Min_cycle;Max_cycle;Signal;HPM_P1;HPM_P2
2022/10/05 00:02:22;;;;;;;4.90;4.33;;;11.80;1.00;;;;;;5046035;28;20425;-55
2022/10/05 00:04:52;;;;;;;8.30;4.30;;;11.90;1.00;;;;;;5042920;28;20191;-56
2022/10/05 00:07:20;;;;;;;4.70;3.90;;;11.90;1.00;;;;;;5048289;28;20461;-55
2022/10/05 00:09:52;;;;;;;4.80;4.40;;;11.80;1.00;;;;;;5046339;28;20556;-57
2022/10/05 00:12:20;;;;;;;5.07;3.90;;;11.80;1.00;;;;;;5051044;28;20977;-54
2022/10/05 00:14:48;;;;;;;4.10;3.70;;;11.80;1.00;;;;;;5048198;28;20435;-54
2022/10/05 00:17:20;;;;;;;5.53;4.70;;;11.80;1.00;;;;;;5049650;28;20453;-55
2022/10/05 00:19:50;;;;;;;5.00;3.60;;;11.90;1.00;;;;;;5044592;28;20527;-53
2022/10/05 00:22:19;;;;;;;3.90;3.50;;;11.80;1.00;;;;;;5047028;28;20905;-55
2022/10/05 00:24:47;;;;;;;3.93;3.63;;;11.80;1.00;;;;;;5042528;28;20540;-54
2022/10/05 00:27:21;;;;;;;4.10;3.73;;;13.60;1.00;;;;;;5060110;28;20587;-55
2022/10/05 00:29:48;;;;;;;7.50;4.20;;;11.80;1.00;;;;;;5056518;28;20443;-53
2022/10/05 00:32:14;;;;;;;4.37;3.93;;;11.70;1.00;;;;;;5043962;28;20431;-53
2022/10/05 00:34:41;;;;;;;4.40;3.93;;;11.70;1.00;;;;;;5043161;28;20443;-55
2022/10/05 00:37:06;;;;;;;5.57;4.20;;;11.80;1.00;;;;;;5042480;28;20243;-55
2022/10/05 00:39:34;;;;;;;6.70;4.47;;;11.70;1.00;;;;;;5040828;28;20477;-55
2022/10/05 00:42:33;;;;;;;4.20;3.70;;;11.70;1.00;;;;;;5042254;28;20233;-53
2022/10/05 00:45:02;;;;;;;5.33;4.17;;;11.70;1.00;;;;;;5048852;28;20444;-56
2022/10/05 00:47:59;;;;;;;7.90;4.07;;;11.70;1.00;;;;;;5050440;28;20461;-55
2022/10/05 00:50:41;;;;;;;5.00;4.07;;;11.80;1.00;;;;;;5043020;28;20451;-55
2022/10/05 00:53:21;;;;;;;4.60;3.70;;;11.70;1.00;;;;;;5046674;28;20967;-55
2022/10/05 00:56:22;;;;;;;5.00;4.20;;;11.70;1.00;;;;;;5047635;28;20515;-55
2022/10/05 00:59:00;;;;;;;4.07;3.57;;;11.70;1.00;;;;;;5042868;28;20421;-56
2022/10/05 01:01:44;;;;;;;4.80;3.97;;;11.70;1.00;;;;;;5046092;28;20460;-55
2022/10/05 01:04:22;;;;;;;6.87;3.70;;;11.70;1.00;;;;;;5053764;28;20911;-54
2022/10/05 01:07:06;;;;;;;5.37;3.63;;;11.70;1.00;;;;;;5055476;28;20886;-54
2022/10/05 01:09:54;;;;;;;5.47;4.03;;;11.60;1.00;;;;;;5043505;28;20425;-55
2022/10/05 01:12:46;;;;;;;4.63;4.17;;;11.60;1.00;;;;;;5045215;28;20827;-54
2022/10/05 01:15:41;;;;;;;5.30;4.07;;;11.60;1.00;;;;;;5042805;28;20436;-55
2022/10/05 01:18:16;;;;;;;4.47;4.07;;;11.60;1.00;;;;;;5049432;28;20816;-56
2022/10/05 01:21:06;;;;;;;5.30;4.37;;;11.60;1.00;;;;;;5046943;28;20460;-56
2022/10/05 01:23:34;;;;;;;4.57;3.93;;;11.60;1.00;;;;;;5049003;28;20460;-53
2022/10/05 01:26:41;;;;;;;4.43;3.47;;;11.60;1.00;;;;;;5046340;28;20478;-53
2022/10/05 01:29:18;;;;;;;4.40;4.00;;;11.60;1.00;;;;;;5043806;28;20502;-53
2022/10/05 01:32:04;;;;;;;4.63;3.90;;;11.60;1.00;;;;;;5045905;28;20431;-54
2022/10/05 01:34:29;;;;;;;6.70;4.77;;;11.50;1.00;;;;;;5045022;28;20422;-54
2022/10/05 01:37:01;;;;;;;4.43;3.90;;;11.40;1.00;;;;;;5049416;28;20468;-56
2022/10/05 01:39:38;;;;;;;4.30;3.90;;;11.40;1.00;;;;;;5048730;28;20184;-53
2022/10/05 01:42:36;;;;;;;5.10;4.30;;;11.30;1.00;;;;;;5049293;28;20449;-51
2022/10/05 01:45:23;;;;;;;4.37;3.70;;;11.40;1.00;;;;;;5047212;28;20431;-55
2022/10/05 01:47:56;;;;;;;4.87;4.37;;;11.40;1.00;;;;;;5045248;28;20450;-54
2022/10/05 01:50:43;;;;;;;4.43;4.00;;;11.30;1.00;;;;;;5045969;28;20437;-55
2022/10/05 01:53:40;;;;;;;6.70;3.90;;;11.40;1.00;;;;;;5046351;28;20437;-54
2022/10/05 01:56:46;;;;;;;6.40;4.90;;;11.40;1.00;;;;;;5045762;28;20452;-55
2022/10/05 01:59:39;;;;;;;6.20;4.30;;;11.30;1.00;;;;;;5042483;28;20453;-56
2022/10/05 02:02:17;;;;;;;6.20;4.13;;;11.30;1.00;;;;;;5047944;28;20461;-55
2022/10/05 02:04:45;;;;;;;5.00;4.50;;;11.30;1.00;;;;;;5043936;28;20455;-56
2022/10/05 02:07:22;;;;;;;5.90;4.83;;;11.30;1.00;;;;;;5043397;28;20426;-54
2022/10/05 02:09:57;;;;;;;4.40;4.00;;;11.30;1.00;;;;;;5046206;28;20458;-55
2022/10/05 02:12:26;;;;;;;6.00;4.23;;;11.30;1.00;;;;;;5047958;28;20454;-54
2022/10/05 02:14:55;;;;;;;4.60;4.20;;;11.30;1.00;;;;;;5044940;28;20470;-51
2022/10/05 02:17:31;;;;;;;4.70;4.20;;;11.30;1.00;;;;;;5046726;28;20465;-55
2022/10/05 02:20:01;;;;;;;6.27;4.53;;;11.30;1.00;;;;;;5037152;28;20956;-55
2022/10/05 02:22:35;;;;;;;8.90;5.53;;;11.20;1.00;;;;;;5044817;28;21017;-54
2022/10/05 02:25:07;;;;;;;6.80;4.37;;;11.20;1.00;;;;;;5044696;28;20520;-54
2022/10/05 02:27:39;;;;;;;5.77;4.50;;;11.30;1.00;;;;;;5049917;28;20526;-55
2022/10/05 02:30:06;;;;;;;8.17;4.90;;;11.30;1.00;;;;;;5045382;28;20421;-55
2022/10/05 02:33:04;;;;;;;4.50;4.10;;;11.30;1.00;;;;;;5044772;28;20517;-54
2022/10/05 02:35:30;;;;;;;4.90;4.40;;;11.30;1.00;;;;;;5040600;28;20426;-53
2022/10/05 02:38:22;;;;;;;6.37;4.90;;;11.20;1.00;;;;;;5047023;28;20962;-56
2022/10/05 02:41:03;;;;;;;6.90;4.00;;;11.30;1.00;;;;;;5048820;28;20596;-53
2022/10/05 02:43:38;;;;;;;6.43;3.80;;;11.20;1.00;;;;;;5048491;28;20489;-54
2022/10/05 02:46:16;;;;;;;4.40;4.00;;;11.20;1.00;;;;;;5051611;28;20818;-54
2022/10/05 02:48:58;;;;;;;5.70;4.03;;;11.10;1.00;;;;;;5051505;28;20479;-55
2022/10/05 02:51:53;;;;;;;6.03;4.50;;;11.10;1.00;;;;;;5046812;28;20424;-56
2022/10/05 02:54:57;;;;;;;5.37;4.87;;;11.10;1.00;;;;;;5046263;28;20455;-54
2022/10/05 02:57:31;;;;;;;8.10;5.03;;;11.00;1.00;;;;;;5027365;28;20889;-54
2022/10/05 03:00:07;;;;;;;6.43;5.30;;;11.10;1.00;;;;;;5049023;28;20481;-56
2022/10/05 03:03:08;;;;;;;5.17;4.60;;;11.00;1.00;;;;;;5049946;28;20952;-55
2022/10/05 03:05:53;;;;;;;5.60;4.37;;;11.00;1.00;;;;;;5051527;28;20429;-54
2022/10/05 03:08:42;;;;;;;9.40;4.23;;;11.00;1.00;;;;;;5043846;28;20988;-55
2022/10/05 03:11:23;;;;;;;6.77;5.53;;;11.00;1.00;;;;;;5045694;28;20437;-56
2022/10/05 03:14:10;;;;;;;11.13;4.80;;;10.90;1.00;;;;;;5048835;28;20430;-54
2022/10/05 03:17:16;;;;;;;5.00;4.50;;;10.90;1.00;;;;;;5051549;28;20780;-54
2022/10/05 03:19:53;;;;;;;5.17;4.67;;;10.90;1.00;;;;;;5055570;28;20858;-52
2022/10/05 03:22:47;;;;;;;6.00;4.63;;;10.90;1.00;;;;;;5049765;28;20452;-53
2022/10/05 03:25:43;;;;;;;7.33;4.93;;;10.90;1.00;;;;;;5049724;28;20447;-54
2022/10/05 03:28:17;;;;;;;6.30;4.80;;;10.80;1.00;;;;;;5050662;28;20448;-55
2022/10/05 03:30:45;;;;;;;7.27;4.23;;;10.90;1.00;;;;;;5049360;28;20449;-55
2022/10/05 03:33:23;;;;;;;8.40;5.03;;;10.80;1.00;;;;;;5049390;28;20450;-56
2022/10/05 03:36:36;;;;;;;5.40;4.53;;;10.80;1.00;;;;;;5049258;28;20466;-54
2022/10/05 03:39:10;;;;;;;6.50;3.73;;;10.70;1.00;;;;;;5047527;28;20794;-54
2022/10/05 03:41:57;;;;;;;6.63;4.50;;;10.80;1.00;;;;;;5049751;28;20442;-58
2022/10/05 03:44:48;;;;;;;5.40;4.80;;;10.80;1.00;;;;;;5048822;28;20432;-57
2022/10/05 03:47:25;;;;;;;5.83;4.37;;;10.80;1.00;;;;;;5061028;28;20431;-59
2022/10/05 03:50:23;;;;;;;6.67;5.70;;;10.80;1.00;;;;;;5044340;28;20446;-61
2022/10/05 03:53:00;;;;;;;6.67;4.33;;;10.80;1.00;;;;;;5077063;28;20414;-56
2022/10/05 03:55:30;;;;;;;10.53;4.70;;;10.80;1.00;;;;;;5052266;28;20795;-57
2022/10/05 03:58:01;;;;;;;5.37;4.73;;;10.80;1.00;;;;;;5052990;28;20448;-58
2022/10/05 04:00:28;;;;;;;7.77;6.03;;;10.70;1.00;;;;;;5054461;28;20491;-56
2022/10/05 04:03:00;;;;;;;6.10;5.50;;;10.70;1.00;;;;;;5048121;28;20449;-57
2022/10/05 04:05:50;;;;;;;6.27;5.23;;;10.80;1.00;;;;;;5051227;28;20519;-56
2022/10/05 04:08:48;;;;;;;7.60;6.20;;;10.70;1.00;;;;;;5049395;28;20524;-58
2022/10/05 04:11:30;;;;;;;7.07;5.77;;;10.70;1.00;;;;;;5048505;28;20425;-56
2022/10/05 04:14:14;;;;;;;11.17;7.33;;;10.70;1.00;;;;;;5048770;28;20441;-54
2022/10/05 04:16:53;;;;;;;20.43;11.07;;;10.80;1.00;;;;;;5047194;28;20634;-56
2022/10/05 04:19:50;;;;;;;12.30;7.57;;;10.60;1.00;;;;;;5049525;28;20449;-56
2022/10/05 04:22:28;;;;;;;20.07;8.50;;;10.60;1.00;;;;;;5047895;28;20445;-55
2022/10/05 04:25:14;;;;;;;10.93;6.53;;;10.50;1.00;;;;;;5048171;28;20883;-56
2022/10/05 04:28:02;;;;;;;15.90;9.33;;;10.40;1.00;;;;;;5048317;28;20942;-56
2022/10/05 04:30:31;;;;;;;8.33;5.30;;;10.30;1.00;;;;;;5050903;28;20525;-53
2022/10/05 04:32:58;;;;;;;8.47;6.20;;;10.30;1.00;;;;;;5045114;28;20417;-56
2022/10/05 04:36:11;;;;;;;7.47;5.60;;;10.20;1.00;;;;;;5048441;28;20758;-55
2022/10/05 04:38:49;;;;;;;5.57;4.83;;;10.20;1.00;;;;;;5029961;28;21042;-54
2022/10/05 04:41:43;;;;;;;11.30;5.13;;;10.20;1.00;;;;;;5043886;28;20458;-55
2022/10/05 04:44:39;;;;;;;9.40;5.90;;;10.20;1.00;;;;;;5047899;28;20886;-56
2022/10/05 04:47:17;;;;;;;9.33;6.40;;;10.20;1.00;;;;;;5048521;28;20532;-55
2022/10/05 04:50:06;;;;;;;12.70;7.20;;;10.20;1.00;;;;;;5054656;28;20447;-56
2022/10/05 04:52:47;;;;;;;12.93;6.30;;;10.10;1.00;;;;;;5048832;28;20454;-54
2022/10/05 04:55:41;;;;;;;16.60;6.97;;;10.10;1.00;;;;;;5044028;28;20425;-57
2022/10/05 04:58:36;;;;;;;12.13;6.70;;;10.10;1.00;;;;;;5047963;28;20422;-57
2022/10/05 05:01:20;;;;;;;10.63;6.90;;;10.10;1.00;;;;;;5049110;28;20485;-54
2022/10/05 05:04:21;;;;;;;10.10;7.00;;;10.10;1.00;;;;;;5049425;28;20827;-57
2022/10/05 05:07:00;;;;;;;13.87;7.33;;;10.10;1.00;;;;;;5047446;28;20487;-55
2022/10/05 05:09:38;;;;;;;15.73;7.00;;;10.00;1.00;;;;;;5040877;28;20551;-57
2022/10/05 05:12:25;;;;;;;12.50;6.63;;;10.00;1.00;;;;;;5049671;28;20433;-56
2022/10/05 05:15:15;;;;;;;15.07;6.40;;;10.00;1.00;;;;;;5042358;28;20474;-53
2022/10/05 05:18:06;;;;;;;11.70;6.40;;;10.00;1.00;;;;;;5042968;28;20458;-56
2022/10/05 05:21:05;;;;;;;9.47;6.60;;;10.10;1.00;;;;;;5042823;28;20450;-58
2022/10/05 05:23:56;;;;;;;12.17;6.47;;;10.10;1.00;;;;;;5040000;28;20455;-57
2022/10/05 05:26:48;;;;;;;16.50;6.80;;;10.10;1.00;;;;;;5046240;28;20524;-55
2022/10/05 05:29:41;;;;;;;9.90;6.20;;;10.10;1.00;;;;;;5044607;28;20538;-56
2022/10/05 05:32:24;;;;;;;13.13;6.47;;;10.10;1.00;;;;;;5045962;28;20453;-56
2022/10/05 05:35:03;;;;;;;9.90;6.07;;;10.10;1.00;;;;;;5045853;28;20420;-55
2022/10/05 05:37:57;;;;;;;10.63;6.37;;;10.10;1.00;;;;;;5042451;28;20427;-54
2022/10/05 05:40:32;;;;;;;8.93;5.80;;;10.10;1.00;;;;;;5047620;28;20560;-57
2022/10/05 05:42:59;;;;;;;6.70;4.83;;;10.10;1.00;;;;;;5049056;28;20493;-57
2022/10/05 05:45:44;;;;;;;6.90;5.90;;;10.10;1.00;;;;;;5046307;28;20428;-55
2022/10/05 05:48:18;;;;;;;8.33;5.13;;;10.10;1.00;;;;;;5048199;28;20473;-55
2022/10/05 05:51:09;;;;;;;7.70;5.97;;;10.10;1.00;;;;;;5046880;28;20454;-56
2022/10/05 05:53:44;;;;;;;8.80;6.13;;;10.10;1.00;;;;;;5046344;28;20525;-54
2022/10/05 05:56:13;;;;;;;10.40;6.40;;;10.10;1.00;;;;;;5046251;28;20416;-56
2022/10/05 05:59:05;;;;;;;7.17;5.47;;;10.20;1.00;;;;;;5044822;28;20481;-56
2022/10/05 06:01:54;;;;;;;8.60;4.97;;;10.30;1.00;;;;;;5047431;28;20974;-55
2022/10/05 06:04:34;;;;;;;7.77;5.93;;;10.30;1.00;;;;;;5043848;28;20468;-55
2022/10/05 06:07:02;;;;;;;13.23;7.03;;;10.30;1.00;;;;;;5048054;28;20888;-55
2022/10/05 06:09:38;;;;;;;8.13;6.53;;;10.40;1.00;;;;;;5044174;28;20445;-55
2022/10/05 06:12:18;;;;;;;6.20;5.07;;;10.40;1.00;;;;;;5048621;28;20796;-56
2022/10/05 06:14:49;;;;;;;6.50;5.00;;;10.50;1.00;;;;;;5045855;28;20424;-54
2022/10/05 06:17:27;;;;;;;6.27;5.43;;;10.50;1.00;;;;;;5048377;28;21001;-54
2022/10/05 06:19:56;;;;;;;9.27;6.13;;;10.60;1.00;;;;;;5047693;28;20984;-54
2022/10/05 06:22:34;;;;;;;7.30;6.23;;;10.60;1.00;;;;;;5053844;28;20816;-54
2022/10/05 06:25:12;;;;;;;10.33;5.40;;;10.70;1.00;;;;;;5052552;28;20907;-52
2022/10/05 06:28:10;;;;;;;8.03;6.37;;;10.70;1.00;;;;;;5049497;28;20440;-54
2022/10/05 06:30:47;;;;;;;12.50;5.27;;;10.80;1.00;;;;;;5049169;28;20447;-55
2022/10/05 06:33:23;;;;;;;11.23;7.47;;;10.80;1.00;;;;;;5045050;28;20793;-56
2022/10/05 06:36:09;;;;;;;12.40;6.53;;;10.90;1.00;;;;;;5051358;28;20452;-56
2022/10/05 06:38:49;;;;;;;9.90;7.03;;;11.10;1.00;;;;;;5051398;28;20433;-53
2022/10/05 06:41:31;;;;;;;10.80;6.30;;;11.30;1.00;;;;;;5052066;28;20456;-54
2022/10/05 06:44:43;;;;;;;8.67;6.47;;;11.30;1.00;;;;;;5051068;28;20473;-56
2022/10/05 06:47:13;;;;;;;9.60;6.43;;;11.50;1.00;;;;;;5040593;28;21094;-55
2022/10/05 06:49:52;;;;;;;10.17;5.80;;;11.60;1.00;;;;;;5053468;28;20426;-55
2022/10/05 06:52:46;;;;;;;9.23;6.33;;;11.70;1.00;;;;;;5044235;28;20445;-56
2022/10/05 06:55:22;;;;;;;12.90;5.90;;;11.80;1.00;;;;;;5033558;28;20474;-54
2022/10/05 06:58:05;;;;;;;7.13;5.60;;;12.00;1.00;;;;;;5049234;28;20424;-54
2022/10/05 07:00:53;;;;;;;9.77;6.27;;;12.20;1.00;;;;;;5052636;28;20863;-54
2022/10/05 07:03:39;;;;;;;9.37;6.20;;;12.50;1.00;;;;;;5071325;28;20434;-54
2022/10/05 07:06:08;;;;;;;10.80;6.63;;;12.80;1.00;;;;;;5072328;28;20449;-53
2022/10/05 07:08:45;;;;;;;7.63;6.17;;;13.00;1.00;;;;;;5072322;28;20783;-55
2022/10/05 07:11:45;;;;;;;8.43;5.87;;;13.10;1.00;;;;;;5072203;28;20473;-55
2022/10/05 07:14:37;;;;;;;8.30;5.57;;;13.10;1.00;;;;;;5052814;28;20785;-54
2022/10/05 07:17:23;;;;;;;9.70;6.53;;;13.20;1.00;;;;;;5051952;28;20749;-53
2022/10/05 07:20:07;;;;;;;5.87;4.97;;;13.20;1.00;;;;;;5052193;28;21177;-54
2022/10/05 07:22:44;;;;;;;6.60;5.97;;;13.40;1.00;;;;;;5054989;28;20435;-54
2022/10/05 07:25:21;;;;;;;8.27;5.80;;;15.70;1.00;;;;;;5072159;28;20419;-53
2022/10/05 07:27:56;;;;;;;8.10;6.37;;;14.10;1.00;;;;;;5072054;28;20533;-56
2022/10/05 07:30:21;;;;;;;8.53;6.50;;;14.10;1.00;;;;;;5071654;28;20436;-53
2022/10/05 07:33:08;;;;;;;7.93;5.77;;;14.30;1.00;;;;;;5071949;28;20445;-55
2022/10/05 07:39:04;;;;;;;8.37;5.80;;;14.10;1.00;;;;;;5051603;28;20773;-54
2022/10/05 07:41:39;;;;;;;7.23;5.40;;;14.30;1.00;;;;;;5041109;28;20913;-53
2022/10/05 07:44:12;;;;;;;6.77;5.63;;;14.40;1.00;;;;;;5051440;28;20476;-55
2022/10/05 07:46:52;;;;;;;7.43;6.00;;;14.60;1.00;;;;;;5051350;28;20417;-55
2022/10/05 07:49:27;;;;;;;6.47;4.60;;;14.70;1.00;;;;;;5051521;28;20493;-54
2022/10/05 07:52:04;;;;;;;8.33;5.60;;;14.80;1.00;;;;;;5048641;28;20430;-53
2022/10/05 07:54:57;;;;;;;7.70;5.30;;;14.90;1.00;;;;;;5069040;28;20426;-54
2022/10/05 07:57:56;;;;;;;10.07;6.00;;;15.00;1.00;;;;;;5071024;28;20434;-53
2022/10/05 08:00:26;;;;;;;7.80;5.67;;;15.30;1.00;;;;;;5060300;28;20438;-56
2022/10/05 08:02:57;;;;;;;7.33;5.20;;;15.60;1.00;;;;;;5051038;28;20426;-55
2022/10/05 08:05:28;;;;;;;8.80;5.87;;;15.70;1.00;;;;;;5051358;28;20426;-53
2022/10/05 08:08:11;;;;;;;7.80;5.70;;;15.80;1.00;;;;;;5050933;28;20472;-55
2022/10/05 08:10:45;;;;;;;9.00;5.57;;;16.00;1.00;;;;;;5049380;28;20837;-54
2022/10/05 08:13:20;;;;;;;12.33;5.30;;;16.00;1.00;;;;;;5051079;28;20589;-55
2022/10/05 08:15:52;;;;;;;10.57;5.57;;;16.10;1.00;;;;;;5051095;28;20437;-54
2022/10/05 08:18:55;;;;;;;6.97;4.70;;;16.00;1.00;;;;;;5051004;28;20439;-54
2022/10/05 08:21:35;;;;;;;8.67;4.63;;;16.00;1.00;;;;;;5050723;28;20419;-55
2022/10/05 08:24:04;;;;;;;6.13;4.60;;;16.00;1.00;;;;;;5050663;28;20498;-53
2022/10/05 08:26:38;;;;;;;6.33;5.00;;;16.00;1.00;;;;;;5050225;28;20444;-56
2022/10/05 08:29:18;;;;;;;6.37;4.70;;;16.20;1.00;;;;;;5050434;28;20955;-53
2022/10/05 08:32:02;;;;;;;8.10;4.23;;;16.40;1.00;;;;;;5050815;28;20413;-53
2022/10/05 08:35:03;;;;;;;5.93;4.50;;;16.50;1.00;;;;;;5050511;28;20447;-56
2022/10/05 08:37:36;;;;;;;6.23;5.30;;;16.60;1.00;;;;;;5041498;28;20817;-56
2022/10/05 08:40:23;;;;;;;8.40;4.77;;;16.60;1.00;;;;;;5050627;28;20404;-56
2022/10/05 08:43:32;;;;;;;5.50;4.60;;;16.90;1.00;;;;;;5049561;28;20553;-55
2022/10/05 08:46:29;;;;;;;4.03;3.60;;;16.90;1.00;;;;;;5050564;28;20451;-56
2022/10/05 08:49:19;;;;;;;5.17;4.57;;;16.90;1.00;;;;;;5048807;28;20465;-55
2022/10/05 08:51:53;;;;;;;7.17;4.47;;;16.90;1.00;;;;;;5050454;28;20419;-56
2022/10/05 08:54:24;;;;;;;6.07;4.40;;;16.90;1.00;;;;;;5050505;28;20419;-54
2022/10/05 08:57:04;;;;;;;5.03;4.53;;;16.90;1.00;;;;;;5049738;28;20406;-53
2022/10/05 08:59:41;;;;;;;5.93;4.53;;;16.90;1.00;;;;;;5050253;28;20441;-54
2022/10/05 09:02:44;;;;;;;6.20;4.43;;;16.90;1.00;;;;;;5050015;28;20416;-54
2022/10/05 09:05:23;;;;;;;6.47;4.33;;;16.90;1.00;;;;;;5049977;28;20447;-55
2022/10/05 09:08:07;;;;;;;5.20;4.70;;;16.80;1.00;;;;;;5049939;28;20807;-56
2022/10/05 09:11:02;;;;;;;7.10;4.43;;;17.00;1.00;;;;;;5050348;28;20438;-56
2022/10/05 09:13:51;;;;;;;4.13;3.73;;;17.30;1.00;;;;;;5047402;28;20850;-56
2022/10/05 09:16:54;;;;;;;4.67;4.03;;;17.50;1.00;;;;;;5051688;28;20433;-54
2022/10/05 09:19:45;;;;;;;5.93;3.53;;;17.70;1.00;;;;;;5069892;28;20435;-55
2022/10/05 09:22:37;;;;;;;5.53;3.90;;;17.90;1.00;;;;;;5069674;28;20835;-55
2022/10/05 09:25:16;;;;;;;6.30;3.90;;;18.10;1.00;;;;;;5069475;28;20444;-56
2022/10/05 09:27:56;;;;;;;5.13;4.00;;;18.30;1.00;;;;;;5069637;28;20511;-54
2022/10/05 09:30:32;;;;;;;4.30;3.83;;;18.60;1.00;;;;;;5069947;28;20438;-55
2022/10/05 09:33:27;;;;;;;5.07;4.43;;;18.80;1.00;;;;;;5056890;28;21214;-55
2022/10/05 09:36:22;;;;;;;5.67;4.03;;;19.00;1.00;;;;;;5049958;28;20859;-56
2022/10/05 09:39:15;;;;;;;4.03;3.40;;;19.20;1.00;;;;;;5049389;28;20769;-54
2022/10/05 09:42:12;;;;;;;5.03;3.40;;;19.50;1.00;;;;;;5048170;28;20447;-54
2022/10/05 09:44:59;;;;;;;8.27;3.90;;;19.50;1.00;;;;;;5049446;28;20428;-55
2022/10/05 09:47:49;;;;;;;5.27;3.50;;;19.60;1.00;;;;;;5049568;28;20419;-53
2022/10/05 09:50:23;;;;;;;7.50;4.40;;;19.80;1.00;;;;;;5049589;28;20467;-54
2022/10/05 09:53:04;;;;;;;5.77;4.33;;;19.80;1.00;;;;;;5049710;28;20433;-55
2022/10/05 09:55:44;;;;;;;6.23;3.77;;;19.80;1.00;;;;;;5051245;28;20434;-55
2022/10/05 09:58:23;;;;;;;5.37;4.43;;;19.70;1.00;;;;;;5054788;28;20436;-55
2022/10/05 10:00:52;;;;;;;6.43;3.73;;;19.80;1.00;;;;;;5073483;28;20440;-54
2022/10/05 10:03:57;;;;;;;4.67;3.50;;;19.90;1.00;;;;;;5063276;28;20426;-54
2022/10/05 10:06:48;;;;;;;4.00;3.30;;;20.10;1.00;;;;;;5052526;28;20804;-56
2022/10/05 10:09:34;;;;;;;5.63;4.23;;;20.40;1.00;;;;;;5051538;28;20468;-54
2022/10/05 10:12:13;;;;;;;4.60;3.30;;;20.50;1.00;;;;;;5053297;28;20428;-55
2022/10/05 10:15:22;;;;;;;3.80;3.40;;;20.50;1.00;;;;;;5053193;28;20482;-56
2022/10/05 10:18:01;;;;;;;4.67;3.57;;;20.60;1.00;;;;;;5028773;28;20539;-55
2022/10/05 10:20:34;;;;;;;8.90;3.93;;;20.60;1.00;;;;;;5050955;28;20445;-54
2022/10/05 10:23:09;;;;;;;4.10;3.37;;;20.40;1.00;;;;;;5052979;28;20777;-54
2022/10/05 10:25:58;;;;;;;6.50;3.70;;;20.90;1.00;;;;;;5052984;28;20406;-56
2022/10/05 10:28:51;;;;;;;4.73;3.20;;;20.90;1.00;;;;;;5059764;28;20455;-54
2022/10/05 10:31:44;;;;;;;5.93;3.47;;;20.80;1.00;;;;;;5040499;28;20475;-56
2022/10/05 10:34:18;;;;;;;6.90;4.40;;;20.50;1.00;;;;;;5057747;28;20446;-56
2022/10/05 10:37:05;;;;;;;4.80;4.00;;;20.20;1.00;;;;;;5052608;28;20442;-54
2022/10/05 10:40:07;;;;;;;3.40;3.10;;;20.00;1.00;;;;;;5052543;28;20471;-54
2022/10/05 10:42:55;;;;;;;4.27;3.87;;;19.90;1.00;;;;;;5052358;28;20439;-53
2022/10/05 10:45:45;;;;;;;6.63;3.83;;;20.00;1.00;;;;;;5060688;28;20439;-54
2022/10/05 10:48:29;;;;;;;6.43;3.97;;;20.20;1.00;;;;;;5052126;28;20735;-54
2022/10/05 10:51:05;;;;;;;4.53;3.77;;;20.40;1.00;;;;;;5066704;28;20506;-53
2022/10/05 10:53:30;;;;;;;8.07;3.90;;;20.60;1.00;;;;;;5072126;28;20448;-55
2022/10/05 10:56:23;;;;;;;7.30;3.73;;;20.90;1.00;;;;;;5058430;28;20414;-55
2022/10/05 10:59:02;;;;;;;4.10;3.70;;;21.40;1.00;;;;;;5052261;28;20232;-54
2022/10/05 11:01:40;;;;;;;4.57;3.60;;;21.50;1.00;;;;;;5070423;28;20801;-53
2022/10/05 11:04:30;;;;;;;5.40;3.67;;;21.60;1.00;;;;;;5064085;28;20487;-54
2022/10/05 11:07:24;;;;;;;4.43;3.20;;;21.60;1.00;;;;;;5058186;28;20448;-53
2022/10/05 11:10:29;;;;;;;8.27;3.83;;;22.30;1.00;;;;;;5052121;28;20541;-54
2022/10/05 11:13:03;;;;;;;4.60;3.23;;;22.30;1.00;;;;;;5054362;28;20430;-56
2022/10/05 11:15:50;;;;;;;4.00;3.53;;;22.50;1.00;;;;;;5057942;28;20437;-55
2022/10/05 11:18:31;;;;;;;3.87;3.47;;;22.30;1.00;;;;;;5051697;28;20790;-55
2022/10/05 11:21:02;;;;;;;4.20;3.03;;;22.30;1.00;;;;;;5049659;28;20445;-53
2022/10/05 11:23:47;;;;;;;3.93;3.50;;;22.20;1.00;;;;;;5052870;28;20434;-55
2022/10/05 11:26:23;;;;;;;5.50;2.80;;;22.40;1.00;;;;;;5063538;28;20931;-54
2022/10/05 11:29:35;;;;;;;4.07;3.17;;;22.40;1.00;;;;;;5072079;28;20818;-56
2022/10/05 11:32:34;;;;;;;3.13;2.80;;;22.40;1.00;;;;;;5064041;28;20947;-56
2022/10/05 11:35:36;;;;;;;4.03;3.10;;;22.50;1.00;;;;;;5072004;28;20440;-54
2022/10/05 11:38:32;;;;;;;6.00;2.77;;;22.70;1.00;;;;;;5049740;28;20437;-52
2022/10/05 11:41:35;;;;;;;4.03;2.97;;;22.90;1.00;;;;;;5063490;28;20445;-50
2022/10/05 11:44:22;;;;;;;6.23;3.40;;;23.00;1.00;;;;;;5048871;28;20468;-53
2022/10/05 11:47:12;;;;;;;5.20;3.00;;;23.20;1.00;;;;;;5051306;28;20967;-54
2022/10/05 11:50:06;;;;;;;6.27;2.40;;;23.40;1.00;;;;;;5059504;28;20603;-54
2022/10/05 11:52:42;;;;;;;4.47;2.33;;;23.10;1.00;;;;;;5060344;28;20487;-56
2022/10/05 11:55:28;;;;;;;3.20;2.77;;;23.00;1.00;;;;;;5068904;28;20428;-51
2022/10/05 11:58:00;;;;;;;4.70;3.07;;;22.90;1.00;;;;;;5029873;28;20441;-53
2022/10/05 12:00:53;;;;;;;3.50;2.90;;;22.70;1.00;;;;;;5051691;28;20449;-54
2022/10/05 12:03:33;;;;;;;4.07;2.90;;;22.30;1.00;;;;;;5066498;28;20447;-55
2022/10/05 12:06:22;;;;;;;4.57;3.03;;;22.30;1.00;;;;;;5060590;28;20446;-53
2022/10/05 12:09:17;;;;;;;3.00;2.70;;;22.00;1.00;;;;;;5061681;28;20469;-52
2022/10/05 12:11:50;;;;;;;4.63;3.00;;;22.00;1.00;;;;;;5042826;28;20430;-53
2022/10/05 12:14:48;;;;;;;12.73;3.83;;;22.10;1.00;;;;;;5051373;28;20874;-54
2022/10/05 12:17:35;;;;;;;4.07;2.80;;;22.40;1.00;;;;;;5070705;28;20455;-54
2022/10/05 12:20:13;;;;;;;3.50;2.90;;;22.70;1.00;;;;;;5071378;28;20431;-56
2022/10/05 12:22:49;;;;;;;4.90;3.30;;;22.90;1.00;;;;;;5070993;28;20434;-55
2022/10/05 12:25:44;;;;;;;3.50;2.70;;;22.90;1.00;;;;;;5069662;28;20914;-55
2022/10/05 12:28:15;;;;;;;3.30;2.80;;;22.70;1.00;;;;;;5070866;28;21037;-53
2022/10/05 12:31:21;;;;;;;3.67;3.00;;;22.50;1.00;;;;;;5070009;28;20454;-55
2022/10/05 12:34:04;;;;;;;4.10;2.93;;;22.30;1.00;;;;;;5048914;28;20429;-53
2022/10/05 12:36:56;;;;;;;3.70;3.10;;;22.20;1.00;;;;;;5050968;28;20425;-55
2022/10/05 12:39:54;;;;;;;3.60;3.10;;;22.10;1.00;;;;;;5051127;28;20438;-55
2022/10/05 12:42:19;;;;;;;4.60;3.10;;;22.40;1.00;;;;;;5036466;28;20483;-55
2022/10/05 12:44:58;;;;;;;4.17;3.03;;;22.70;1.00;;;;;;5050376;28;21065;-56
2022/10/05 12:47:58;;;;;;;5.80;2.70;;;22.60;1.00;;;;;;5049216;28;20186;-53
2022/10/05 12:50:43;;;;;;;3.33;2.90;;;22.50;1.00;;;;;;5050728;28;20430;-52
2022/10/05 12:53:47;;;;;;;3.10;2.80;;;22.50;1.00;;;;;;5050685;28;20437;-55
2022/10/05 12:56:43;;;;;;;5.40;3.50;;;22.30;1.00;;;;;;5062927;28;20971;-55
2022/10/05 12:59:30;;;;;;;3.27;2.97;;;22.20;1.00;;;;;;5070391;28;20481;-55
2022/10/05 13:02:14;;;;;;;5.70;3.00;;;22.20;1.00;;;;;;5058952;28;20439;-54
2022/10/05 13:04:52;;;;;;;5.07;3.30;;;22.20;1.00;;;;;;5050607;28;20515;-52
2022/10/05 13:07:52;;;;;;;3.33;2.90;;;22.30;1.00;;;;;;5050694;28;20527;-55
2022/10/05 13:10:28;;;;;;;3.70;2.70;;;22.40;1.00;;;;;;5063126;28;20437;-55
2022/10/05 13:13:34;;;;;;;3.77;3.00;;;22.50;1.00;;;;;;5068442;28;20468;-56
2022/10/05 13:16:13;;;;;;;5.40;4.13;;;22.60;1.00;;;;;;5060050;28;20440;-53
2022/10/05 13:19:12;;;;;;;7.03;4.30;;;22.70;1.00;;;;;;5069805;28;20414;-55
2022/10/05 13:21:52;;;;;;;10.20;4.80;;;22.70;1.00;;;;;;5069974;28;20501;-56
2022/10/05 13:24:33;;;;;;;10.90;5.00;;;22.70;1.00;;;;;;5069705;28;20431;-53
2022/10/05 13:27:09;;;;;;;6.60;3.80;;;22.70;1.00;;;;;;5064042;28;20869;-55
2022/10/05 13:29:43;;;;;;;6.73;3.87;;;22.60;1.00;;;;;;5069605;28;20963;-55
2022/10/05 13:32:30;;;;;;;9.73;7.47;;;22.60;1.00;;;;;;5057548;28;20903;-55
2022/10/05 13:35:24;;;;;;;3.53;3.07;;;22.60;1.00;;;;;;5049748;28;21093;-55
2022/10/05 13:38:02;;;;;;;4.97;3.40;;;22.50;1.00;;;;;;5048730;28;20950;-55
2022/10/05 13:40:41;;;;;;;4.27;3.10;;;22.50;1.00;;;;;;5053247;28;20741;-54
2022/10/05 13:43:28;;;;;;;3.73;3.00;;;22.40;1.00;;;;;;5069108;28;20551;-53
2022/10/05 13:46:03;;;;;;;4.03;3.00;;;22.40;1.00;;;;;;5069606;28;20440;-53
2022/10/05 13:48:50;;;;;;;6.60;2.97;;;22.50;1.00;;;;;;5057319;28;20442;-55
2022/10/05 13:51:37;;;;;;;3.37;2.90;;;22.50;1.00;;;;;;5049045;28;20398;-55
2022/10/05 13:54:28;;;;;;;4.07;3.23;;;22.60;1.00;;;;;;5047067;28;20560;-54
2022/10/05 13:57:05;;;;;;;7.17;3.03;;;22.50;1.00;;;;;;5045667;28;20464;-53
2022/10/05 13:59:54;;;;;;;7.40;3.70;;;22.60;1.00;;;;;;5049110;28;20444;-52
2022/10/05 14:02:26;;;;;;;5.87;3.93;;;22.40;1.00;;;;;;5059273;28;20471;-55
2022/10/05 14:05:00;;;;;;;5.53;3.73;;;22.30;1.00;;;;;;5069089;28;20456;-52
2022/10/05 14:07:33;;;;;;;4.63;4.23;;;22.30;1.00;;;;;;5069097;28;20495;-56
2022/10/05 14:10:00;;;;;;;4.43;3.50;;;22.30;1.00;;;;;;5069064;28;20471;-57
2022/10/05 14:12:27;;;;;;;5.90;3.53;;;22.10;1.00;;;;;;5067750;28;20878;-53
2022/10/05 14:14:57;;;;;;;3.73;3.33;;;22.10;1.00;;;;;;5049904;28;20995;-55
2022/10/05 14:17:42;;;;;;;3.20;2.90;;;22.00;1.00;;;;;;5047214;28;21046;-54
2022/10/05 14:20:29;;;;;;;7.10;3.30;;;22.00;1.00;;;;;;5055835;28;20952;-52
2022/10/05 14:22:59;;;;;;;5.07;4.03;;;22.00;1.00;;;;;;5048658;28;20941;-56